sensor_id;sensor_type;location;lat;lon;timestamp;pressure;altitude;pressure_sealevel;temperature;humidity
13235;BME280;6683;48.506;9.050;2023-04-28T00:02:45;97928.16;;;13.90;62.02
13235;BME280;6683;48.506;9.050;2023-04-28T00:05:49;97934.50;;;13.89;62.04
13235;BME280;6683;48.506;9.050;2023-04-28T00:08:53;97930.22;;;13.88;62.06
13235;BME280;6683;48.506;9.050;2023-04-28T00:11:56;97918.19;;;13.86;61.85
13235;BME280;6683;48.506;9.050;2023-04-28T00:15:00;97912.91;;;13.79;61.87
13235;BME280;6683;48.506;9.050;2023-04-28T00:18:03;97917.03;;;13.75;61.97
13235;BME280;6683;48.506;9.050;2023-04-28T00:21:07;97924.59;;;13.72;62.00
13235;BME280;6683;48.506;9.050;2023-04-28T00:24:09;97932.56;;;13.72;62.05
13235;BME280;6683;48.506;9.050;2023-04-28T00:27:11;97915.00;;;13.71;62.14
13235;BME280;6683;48.506;9.050;2023-04-28T00:30:14;97917.66;;;13.71;61.95
13235;BME280;6683;48.506;9.050;2023-04-28T00:33:17;97914.22;;;13.70;62.07
13235;BME280;6683;48.506;9.050;2023-04-28T00:36:21;97906.44;;;13.69;62.19
13235;BME280;6683;48.506;9.050;2023-04-28T00:39:23;97910.13;;;13.68;62.36
13235;BME280;6683;48.506;9.050;2023-04-28T00:42:27;97899.75;;;13.66;62.30
13235;BME280;6683;48.506;9.050;2023-04-28T00:45:29;97904.66;;;13.62;62.05
13235;BME280;6683;48.506;9.050;2023-04-28T00:48:32;97897.13;;;13.59;62.54
13235;BME280;6683;48.506;9.050;2023-04-28T00:51:36;97890.19;;;13.58;62.63
13235;BME280;6683;48.506;9.050;2023-04-28T00:54:38;97890.00;;;13.60;62.67
13235;BME280;6683;48.506;9.050;2023-04-28T00:57:41;97890.19;;;13.58;62.82
13235;BME280;6683;48.506;9.050;2023-04-28T01:00:44;97896.72;;;13.56;62.68
13235;BME280;6683;48.506;9.050;2023-04-28T01:03:46;97900.63;;;13.53;62.87
13235;BME280;6683;48.506;9.050;2023-04-28T01:06:52;97891.25;;;13.51;63.11
13235;BME280;6683;48.506;9.050;2023-04-28T01:09:54;97887.56;;;13.52;62.97
13235;BME280;6683;48.506;9.050;2023-04-28T01:12:57;97882.50;;;13.50;63.10
13235;BME280;6683;48.506;9.050;2023-04-28T01:16:00;97890.66;;;13.49;63.09
13235;BME280;6683;48.506;9.050;2023-04-28T01:19:04;97882.94;;;13.47;63.08
13235;BME280;6683;48.506;9.050;2023-04-28T01:22:09;97873.94;;;13.48;63.21
13235;BME280;6683;48.506;9.050;2023-04-28T01:25:16;97880.88;;;13.49;63.20
13235;BME280;6683;48.506;9.050;2023-04-28T01:28:18;97877.41;;;13.49;63.29
13235;BME280;6683;48.506;9.050;2023-04-28T01:31:21;97871.50;;;13.47;63.25
13235;BME280;6683;48.506;9.050;2023-04-28T01:34:23;97864.38;;;13.47;63.46
13235;BME280;6683;48.506;9.050;2023-04-28T01:37:26;97868.03;;;13.46;63.49
13235;BME280;6683;48.506;9.050;2023-04-28T01:40:29;97861.31;;;13.44;63.55
13235;BME280;6683;48.506;9.050;2023-04-28T01:43:33;97857.06;;;13.43;63.54
13235;BME280;6683;48.506;9.050;2023-04-28T01:46:35;97860.09;;;13.40;63.35
13235;BME280;6683;48.506;9.050;2023-04-28T01:49:37;97861.34;;;13.37;63.55
13235;BME280;6683;48.506;9.050;2023-04-28T01:52:40;97858.69;;;13.37;63.75
13235;BME280;6683;48.506;9.050;2023-04-28T01:56:02;97862.00;;;13.33;63.88
13235;BME280;6683;48.506;9.050;2023-04-28T01:59:22;97860.34;;;13.32;63.74
13235;BME280;6683;48.506;9.050;2023-04-28T02:02:24;97856.88;;;13.31;63.88
13235;BME280;6683;48.506;9.050;2023-04-28T02:05:27;97856.69;;;13.33;63.99
13235;BME280;6683;48.506;9.050;2023-04-28T02:08:30;97859.94;;;13.35;63.99
13235;BME280;6683;48.506;9.050;2023-04-28T02:11:33;97859.13;;;13.34;63.99
13235;BME280;6683;48.506;9.050;2023-04-28T02:14:36;97850.13;;;13.35;64.22
13235;BME280;6683;48.506;9.050;2023-04-28T02:17:38;97845.88;;;13.34;64.03
13235;BME280;6683;48.506;9.050;2023-04-28T02:20:41;97850.56;;;13.32;64.21
13235;BME280;6683;48.506;9.050;2023-04-28T02:23:44;97844.47;;;13.32;64.23
13235;BME280;6683;48.506;9.050;2023-04-28T02:26:47;97821.84;;;13.29;64.23
13235;BME280;6683;48.506;9.050;2023-04-28T02:29:52;97824.47;;;13.29;64.22
13235;BME280;6683;48.506;9.050;2023-04-28T02:32:55;97828.38;;;13.27;64.39
13235;BME280;6683;48.506;9.050;2023-04-28T02:35:58;97841.63;;;13.27;64.42
13235;BME280;6683;48.506;9.050;2023-04-28T02:39:01;97836.53;;;13.25;64.54
13235;BME280;6683;48.506;9.050;2023-04-28T02:42:05;97836.53;;;13.25;64.61
13235;BME280;6683;48.506;9.050;2023-04-28T02:45:09;97846.13;;;13.26;64.95
13235;BME280;6683;48.506;9.050;2023-04-28T02:48:11;97851.81;;;13.30;64.88
13235;BME280;6683;48.506;9.050;2023-04-28T02:51:14;97852.63;;;13.30;64.94
13235;BME280;6683;48.506;9.050;2023-04-28T02:54:16;97843.63;;;13.31;65.06
13235;BME280;6683;48.506;9.050;2023-04-28T02:57:28;97840.56;;;13.34;64.99
13235;BME280;6683;48.506;9.050;2023-04-28T03:00:31;97843.00;;;13.36;65.00
13235;BME280;6683;48.506;9.050;2023-04-28T03:03:33;97859.50;;;13.38;65.17
13235;BME280;6683;48.506;9.050;2023-04-28T03:06:36;97856.63;;;13.39;65.14
13235;BME280;6683;48.506;9.050;2023-04-28T03:09:39;97849.72;;;13.38;65.15
13235;BME280;6683;48.506;9.050;2023-04-28T03:12:43;97859.28;;;13.39;65.33
13235;BME280;6683;48.506;9.050;2023-04-28T03:15:45;97855.63;;;13.40;65.44
13235;BME280;6683;48.506;9.050;2023-04-28T03:18:47;97845.41;;;13.44;65.42
13235;BME280;6683;48.506;9.050;2023-04-28T03:21:49;97842.13;;;13.48;65.56
13235;BME280;6683;48.506;9.050;2023-04-28T03:24:52;97830.06;;;13.52;65.47
13235;BME280;6683;48.506;9.050;2023-04-28T03:27:55;97825.94;;;13.56;65.50
13235;BME280;6683;48.506;9.050;2023-04-28T03:30:58;97825.31;;;13.61;65.47
13235;BME280;6683;48.506;9.050;2023-04-28T03:34:01;97822.03;;;13.66;65.34
13235;BME280;6683;48.506;9.050;2023-04-28T03:37:04;97827.69;;;13.69;65.56
13235;BME280;6683;48.506;9.050;2023-04-28T03:40:08;97817.28;;;13.74;65.51
13235;BME280;6683;48.506;9.050;2023-04-28T03:43:12;97814.16;;;13.77;65.41
13235;BME280;6683;48.506;9.050;2023-04-28T03:46:14;97818.84;;;13.82;65.31
13235;BME280;6683;48.506;9.050;2023-04-28T03:49:17;97815.16;;;13.83;65.39
13235;BME280;6683;48.506;9.050;2023-04-28T03:52:19;97815.75;;;13.85;65.43
13235;BME280;6683;48.506;9.050;2023-04-28T03:55:22;97810.22;;;13.86;65.32
13235;BME280;6683;48.506;9.050;2023-04-28T03:58:27;97813.72;;;13.87;65.36
13235;BME280;6683;48.506;9.050;2023-04-28T04:01:29;97802.03;;;13.88;65.35
13235;BME280;6683;48.506;9.050;2023-04-28T04:04:32;97800.44;;;13.87;65.24
13235;BME280;6683;48.506;9.050;2023-04-28T04:07:34;97805.75;;;13.87;65.30
13235;BME280;6683;48.506;9.050;2023-04-28T04:10:37;97806.75;;;13.86;65.44
13235;BME280;6683;48.506;9.050;2023-04-28T04:13:40;97804.69;;;13.88;65.44
13235;BME280;6683;48.506;9.050;2023-04-28T04:16:46;97804.50;;;13.89;65.61
13235;BME280;6683;48.506;9.050;2023-04-28T04:19:48;97796.09;;;13.92;65.63
13235;BME280;6683;48.506;9.050;2023-04-28T04:22:50;97795.69;;;13.95;65.71
13235;BME280;6683;48.506;9.050;2023-04-28T04:25:53;97797.06;;;13.98;65.67
13235;BME280;6683;48.506;9.050;2023-04-28T04:28:57;97797.06;;;13.98;65.57
13235;BME280;6683;48.506;9.050;2023-04-28T04:31:59;97796.03;;;13.99;65.69
13235;BME280;6683;48.506;9.050;2023-04-28T04:35:01;97796.88;;;13.99;65.69
13235;BME280;6683;48.506;9.050;2023-04-28T04:38:04;97796.88;;;13.99;65.79
13235;BME280;6683;48.506;9.050;2023-04-28T04:41:07;97794.22;;;13.99;65.84
13235;BME280;6683;48.506;9.050;2023-04-28T04:44:11;97782.78;;;13.99;65.81
13235;BME280;6683;48.506;9.050;2023-04-28T04:47:13;97772.75;;;14.01;65.96
13235;BME280;6683;48.506;9.050;2023-04-28T04:50:16;97781.31;;;14.03;65.63
13235;BME280;6683;48.506;9.050;2023-04-28T04:53:18;97778.66;;;14.03;65.86
13235;BME280;6683;48.506;9.050;2023-04-28T04:56:21;97785.19;;;14.00;65.82
13235;BME280;6683;48.506;9.050;2023-04-28T04:59:24;97788.31;;;13.97;65.98
13235;BME280;6683;48.506;9.050;2023-04-28T05:02:28;97785.66;;;13.97;66.05
13235;BME280;6683;48.506;9.050;2023-04-28T05:05:30;97779.31;;;13.98;66.27
13235;BME280;6683;48.506;9.050;2023-04-28T05:08:32;97778.28;;;13.99;66.44
13235;BME280;6683;48.506;9.050;2023-04-28T05:11:34;97771.72;;;14.02;66.44
13235;BME280;6683;48.506;9.050;2023-04-28T05:14:38;97774.53;;;14.07;66.44
13235;BME280;6683;48.506;9.050;2023-04-28T05:17:40;97774.47;;;14.13;66.58
13235;BME280;6683;48.506;9.050;2023-04-28T05:20:43;97768.72;;;14.16;66.22
13235;BME280;6683;48.506;9.050;2023-04-28T05:23:46;97763.81;;;14.20;66.62
13235;BME280;6683;48.506;9.050;2023-04-28T05:26:48;97771.31;;;14.23;66.75
13235;BME280;6683;48.506;9.050;2023-04-28T05:29:52;97775.97;;;14.27;66.67
13235;BME280;6683;48.506;9.050;2023-04-28T05:32:54;97776.34;;;14.31;66.62
13235;BME280;6683;48.506;9.050;2023-04-28T05:35:57;97783.53;;;14.30;66.76
13235;BME280;6683;48.506;9.050;2023-04-28T05:38:59;97784.13;;;14.32;66.76
13235;BME280;6683;48.506;9.050;2023-04-28T05:42:02;97785.72;;;14.33;66.86
13235;BME280;6683;48.506;9.050;2023-04-28T05:45:10;97781.81;;;14.36;67.08
13235;BME280;6683;48.506;9.050;2023-04-28T05:48:12;97776.88;;;14.39;66.99
13235;BME280;6683;48.506;9.050;2023-04-28T05:51:14;97780.94;;;14.42;66.89
13235;BME280;6683;48.506;9.050;2023-04-28T05:54:16;97780.72;;;14.43;67.17
13235;BME280;6683;48.506;9.050;2023-04-28T05:57:19;97774.63;;;14.43;67.25
13235;BME280;6683;48.506;9.050;2023-04-28T06:00:23;97780.53;;;14.45;67.34
13235;BME280;6683;48.506;9.050;2023-04-28T06:03:26;97778.44;;;14.47;67.35
13235;BME280;6683;48.506;9.050;2023-04-28T06:06:28;97776.16;;;14.51;67.61
13235;BME280;6683;48.506;9.050;2023-04-28T06:09:31;97776.31;;;14.56;67.41
13235;BME280;6683;48.506;9.050;2023-04-28T06:12:34;97778.31;;;14.60;67.32
13235;BME280;6683;48.506;9.050;2023-04-28T06:15:37;97771.53;;;14.64;67.22
13235;BME280;6683;48.506;9.050;2023-04-28T06:18:40;97778.44;;;14.65;67.14
13235;BME280;6683;48.506;9.050;2023-04-28T06:21:42;97773.94;;;14.66;67.27
13235;BME280;6683;48.506;9.050;2023-04-28T06:24:45;97783.31;;;14.68;67.24
13235;BME280;6683;48.506;9.050;2023-04-28T06:27:47;97778.00;;;14.68;67.21
13235;BME280;6683;48.506;9.050;2023-04-28T06:30:51;97784.13;;;14.69;67.35
13235;BME280;6683;48.506;9.050;2023-04-28T06:33:53;97769.00;;;14.69;67.54
13235;BME280;6683;48.506;9.050;2023-04-28T06:36:57;97770.63;;;14.70;67.49
13235;BME280;6683;48.506;9.050;2023-04-28T06:40:00;97767.50;;;14.73;67.60
13235;BME280;6683;48.506;9.050;2023-04-28T06:43:02;97765.25;;;14.77;67.59
13235;BME280;6683;48.506;9.050;2023-04-28T06:46:06;97761.31;;;14.79;67.65
13235;BME280;6683;48.506;9.050;2023-04-28T06:49:10;97757.63;;;14.80;67.50
13235;BME280;6683;48.506;9.050;2023-04-28T06:52:13;97752.09;;;14.82;67.62
13235;BME280;6683;48.506;9.050;2023-04-28T06:55:16;97757.16;;;14.83;67.87
13235;BME280;6683;48.506;9.050;2023-04-28T06:58:18;97764.69;;;14.86;67.59
13235;BME280;6683;48.506;9.050;2023-04-28T07:01:22;97753.25;;;14.86;67.72
13235;BME280;6683;48.506;9.050;2023-04-28T07:04:24;97757.53;;;14.87;67.90
13235;BME280;6683;48.506;9.050;2023-04-28T07:07:27;97758.13;;;14.89;68.00
13235;BME280;6683;48.506;9.050;2023-04-28T07:10:29;97750.88;;;14.96;67.98
13235;BME280;6683;48.506;9.050;2023-04-28T07:13:32;97747.78;;;14.99;67.91
13235;BME280;6683;48.506;9.050;2023-04-28T07:16:36;97749.75;;;15.03;68.03
13235;BME280;6683;48.506;9.050;2023-04-28T07:19:39;97744.56;;;15.08;67.93
13235;BME280;6683;48.506;9.050;2023-04-28T07:22:41;97746.56;;;15.13;68.07
13235;BME280;6683;48.506;9.050;2023-04-28T07:25:44;97748.31;;;15.19;68.17
13235;BME280;6683;48.506;9.050;2023-04-28T07:28:47;97736.16;;;15.23;68.17
13235;BME280;6683;48.506;9.050;2023-04-28T07:31:50;97734.47;;;15.29;68.17
13235;BME280;6683;48.506;9.050;2023-04-28T07:34:52;97729.84;;;15.36;68.12
13235;BME280;6683;48.506;9.050;2023-04-28T07:37:54;97732.22;;;15.44;68.13
13235;BME280;6683;48.506;9.050;2023-04-28T07:40:57;97736.63;;;15.50;68.20
13235;BME280;6683;48.506;9.050;2023-04-28T07:44:00;97735.34;;;15.52;68.09
13235;BME280;6683;48.506;9.050;2023-04-28T07:47:06;97737.56;;;15.55;68.14
13235;BME280;6683;48.506;9.050;2023-04-28T07:50:10;97735.50;;;15.57;68.05
13235;BME280;6683;48.506;9.050;2023-04-28T07:53:12;97729.72;;;15.60;67.90
13235;BME280;6683;48.506;9.050;2023-04-28T07:56:15;97731.66;;;15.65;68.08
13235;BME280;6683;48.506;9.050;2023-04-28T07:59:17;97734.13;;;15.66;67.97
13235;BME280;6683;48.506;9.050;2023-04-28T08:02:22;97742.69;;;15.68;68.18
13235;BME280;6683;48.506;9.050;2023-04-28T08:05:24;97746.94;;;15.69;68.25
13235;BME280;6683;48.506;9.050;2023-04-28T08:08:26;97746.72;;;15.71;68.40
13235;BME280;6683;48.506;9.050;2023-04-28T08:11:29;97756.91;;;15.74;68.35
13235;BME280;6683;48.506;9.050;2023-04-28T08:14:32;97745.81;;;15.77;68.33
13235;BME280;6683;48.506;9.050;2023-04-28T08:17:36;97756.22;;;15.78;68.61
13235;BME280;6683;48.506;9.050;2023-04-28T08:20:39;97757.38;;;15.82;68.54
13235;BME280;6683;48.506;9.050;2023-04-28T08:23:41;97759.38;;;15.87;68.64
13235;BME280;6683;48.506;9.050;2023-04-28T08:26:44;97769.31;;;15.91;68.58
13235;BME280;6683;48.506;9.050;2023-04-28T08:29:46;97767.56;;;15.97;68.55
13235;BME280;6683;48.506;9.050;2023-04-28T08:32:51;97772.22;;;16.02;68.80
13235;BME280;6683;48.506;9.050;2023-04-28T08:35:54;97764.31;;;16.07;68.84
13235;BME280;6683;48.506;9.050;2023-04-28T08:38:57;97771.19;;;16.14;68.75
13235;BME280;6683;48.506;9.050;2023-04-28T08:42:03;97779.84;;;16.21;68.87
13235;BME280;6683;48.506;9.050;2023-04-28T08:45:07;97777.31;;;16.26;68.83
13235;BME280;6683;48.506;9.050;2023-04-28T08:48:18;97783.78;;;16.30;68.93
13235;BME280;6683;48.506;9.050;2023-04-28T08:51:28;97788.66;;;16.33;68.94
13235;BME280;6683;48.506;9.050;2023-04-28T08:54:35;97796.75;;;16.38;69.05
13235;BME280;6683;48.506;9.050;2023-04-28T08:57:43;97795.56;;;16.46;69.12
13235;BME280;6683;48.506;9.050;2023-04-28T09:00:46;97793.41;;;16.54;69.31
13235;BME280;6683;48.506;9.050;2023-04-28T09:03:50;97795.94;;;16.61;69.28
13235;BME280;6683;48.506;9.050;2023-04-28T09:06:54;97794.31;;;16.71;69.21
13235;BME280;6683;48.506;9.050;2023-04-28T09:10:22;97801.34;;;16.77;69.59
13235;BME280;6683;48.506;9.050;2023-04-28T09:13:25;97799.38;;;16.85;69.57
13235;BME280;6683;48.506;9.050;2023-04-28T09:16:39;97809.56;;;16.88;69.56
13235;BME280;6683;48.506;9.050;2023-04-28T09:19:43;97805.97;;;16.94;69.59
13235;BME280;6683;48.506;9.050;2023-04-28T09:22:47;97802.56;;;16.98;69.51
13235;BME280;6683;48.506;9.050;2023-04-28T09:26:01;97806.16;;;17.04;69.80
13235;BME280;6683;48.506;9.050;2023-04-28T09:29:11;97809.72;;;17.09;70.06
13235;BME280;6683;48.506;9.050;2023-04-28T09:32:16;97810.75;;;17.20;70.11
13235;BME280;6683;48.506;9.050;2023-04-28T09:35:38;97808.38;;;17.35;70.53
13235;BME280;6683;48.506;9.050;2023-04-28T09:38:43;97818.53;;;17.49;70.42
13235;BME280;6683;48.506;9.050;2023-04-28T09:41:45;97819.84;;;17.64;70.20
13235;BME280;6683;48.506;9.050;2023-04-28T09:44:52;97808.63;;;17.78;70.44
13235;BME280;6683;48.506;9.050;2023-04-28T09:48:09;97814.41;;;18.03;70.66
13235;BME280;6683;48.506;9.050;2023-04-28T09:51:20;97811.25;;;18.23;70.58
13235;BME280;6683;48.506;9.050;2023-04-28T09:54:23;97803.84;;;18.47;70.51
13235;BME280;6683;48.506;9.050;2023-04-28T09:57:30;97812.22;;;18.72;70.63
13235;BME280;6683;48.506;9.050;2023-04-28T10:00:34;97818.47;;;18.99;70.29
13235;BME280;6683;48.506;9.050;2023-04-28T10:03:38;97815.72;;;19.15;69.82
13235;BME280;6683;48.506;9.050;2023-04-28T10:06:43;97813.22;;;19.31;69.64
13235;BME280;6683;48.506;9.050;2023-04-28T10:09:47;97806.69;;;19.43;69.36
13235;BME280;6683;48.506;9.050;2023-04-28T10:12:50;97813.00;;;19.59;69.20
13235;BME280;6683;48.506;9.050;2023-04-28T10:15:53;97806.00;;;19.79;69.44
13235;BME280;6683;48.506;9.050;2023-04-28T10:18:58;97799.41;;;19.97;69.01
13235;BME280;6683;48.506;9.050;2023-04-28T10:22:21;97805.47;;;20.14;69.03
13235;BME280;6683;48.506;9.050;2023-04-28T10:25:28;97800.56;;;20.38;68.47
13235;BME280;6683;48.506;9.050;2023-04-28T10:28:32;97802.59;;;20.62;68.33
13235;BME280;6683;48.506;9.050;2023-04-28T10:31:35;97789.00;;;20.84;68.06
13235;BME280;6683;48.506;9.050;2023-04-28T10:34:37;97795.78;;;20.97;67.49
13235;BME280;6683;48.506;9.050;2023-04-28T10:38:03;97784.00;;;21.03;67.03
13235;BME280;6683;48.506;9.050;2023-04-28T10:41:32;97792.56;;;21.00;66.96
13235;BME280;6683;48.506;9.050;2023-04-28T10:44:41;97791.75;;;20.94;66.72
13235;BME280;6683;48.506;9.050;2023-04-28T10:48:02;97793.09;;;20.92;66.70
13235;BME280;6683;48.506;9.050;2023-04-28T10:51:34;97787.81;;;21.07;66.97
13235;BME280;6683;48.506;9.050;2023-04-28T10:54:39;97780.91;;;21.36;66.73
13235;BME280;6683;48.506;9.050;2023-04-28T10:57:41;97796.84;;;22.03;66.63
13235;BME280;6683;48.506;9.050;2023-04-28T11:00:44;97785.22;;;22.58;65.37
13235;BME280;6683;48.506;9.050;2023-04-28T11:03:49;97786.47;;;22.95;64.65
13235;BME280;6683;48.506;9.050;2023-04-28T11:07:10;97788.97;;;23.41;63.78
13235;BME280;6683;48.506;9.050;2023-04-28T11:10:15;97786.78;;;23.48;62.83
13235;BME280;6683;48.506;9.050;2023-04-28T11:13:25;97784.97;;;23.38;62.55
13235;BME280;6683;48.506;9.050;2023-04-28T11:16:28;97787.09;;;23.41;62.06
13235;BME280;6683;48.506;9.050;2023-04-28T11:19:32;97782.22;;;23.48;61.74
13235;BME280;6683;48.506;9.050;2023-04-28T11:22:34;97783.03;;;23.44;61.10
13235;BME280;6683;48.506;9.050;2023-04-28T11:25:56;97787.94;;;23.32;61.26
13235;BME280;6683;48.506;9.050;2023-04-28T11:28:59;97792.25;;;23.38;61.33
13235;BME280;6683;48.506;9.050;2023-04-28T11:32:02;97792.63;;;23.60;60.72
13235;BME280;6683;48.506;9.050;2023-04-28T11:35:05;97786.31;;;23.79;59.97
13235;BME280;6683;48.506;9.050;2023-04-28T11:38:09;97777.47;;;24.08;59.79
13235;BME280;6683;48.506;9.050;2023-04-28T11:41:13;97777.03;;;24.24;58.90
13235;BME280;6683;48.506;9.050;2023-04-28T11:44:17;97774.59;;;24.28;58.55
13235;BME280;6683;48.506;9.050;2023-04-28T11:47:29;97767.13;;;24.20;58.49
13235;BME280;6683;48.506;9.050;2023-04-28T11:50:35;97769.41;;;24.03;58.03
13235;BME280;6683;48.506;9.050;2023-04-28T11:56:44;97782.44;;;23.57;57.96
13235;BME280;6683;48.506;9.050;2023-04-28T11:59:47;97770.41;;;23.39;58.18
13235;BME280;6683;48.506;9.050;2023-04-28T12:02:49;97771.78;;;23.27;58.19
13235;BME280;6683;48.506;9.050;2023-04-28T12:05:52;97771.31;;;23.15;57.80
13235;BME280;6683;48.506;9.050;2023-04-28T12:08:55;97771.63;;;23.03;58.10
13235;BME280;6683;48.506;9.050;2023-04-28T12:12:05;97766.56;;;22.96;58.12
13235;BME280;6683;48.506;9.050;2023-04-28T12:15:09;97770.09;;;22.92;58.08
13235;BME280;6683;48.506;9.050;2023-04-28T12:18:11;97771.97;;;22.91;57.86
13235;BME280;6683;48.506;9.050;2023-04-28T12:21:20;97777.34;;;22.96;58.21
13235;BME280;6683;48.506;9.050;2023-04-28T12:24:23;97775.16;;;22.98;57.86
13235;BME280;6683;48.506;9.050;2023-04-28T12:27:28;97770.03;;;22.97;58.01
13235;BME280;6683;48.506;9.050;2023-04-28T12:30:31;97782.97;;;22.95;57.57
13235;BME280;6683;48.506;9.050;2023-04-28T12:33:35;97782.72;;;22.91;57.39
13235;BME280;6683;48.506;9.050;2023-04-28T12:36:38;97779.50;;;22.84;57.19
13235;BME280;6683;48.506;9.050;2023-04-28T12:39:40;97771.22;;;22.76;57.40
13235;BME280;6683;48.506;9.050;2023-04-28T12:42:44;97771.22;;;22.76;57.42
13235;BME280;6683;48.506;9.050;2023-04-28T12:45:46;97768.78;;;22.74;57.37
13235;BME280;6683;48.506;9.050;2023-04-28T12:48:49;97768.81;;;22.69;57.48
13235;BME280;6683;48.506;9.050;2023-04-28T12:51:51;97770.41;;;22.70;57.33
13235;BME280;6683;48.506;9.050;2023-04-28T12:54:54;97767.97;;;22.74;57.30
13235;BME280;6683;48.506;9.050;2023-04-28T12:57:57;97762.88;;;22.77;57.50
13235;BME280;6683;48.506;9.050;2023-04-28T13:01:00;97769.84;;;22.78;57.24
13235;BME280;6683;48.506;9.050;2023-04-28T13:04:02;97762.31;;;22.80;57.27
13235;BME280;6683;48.506;9.050;2023-04-28T13:07:05;97759.63;;;22.80;57.30
13235;BME280;6683;48.506;9.050;2023-04-28T13:10:08;97762.06;;;22.82;57.25
13235;BME280;6683;48.506;9.050;2023-04-28T13:13:14;97757.69;;;22.96;57.37
13235;BME280;6683;48.506;9.050;2023-04-28T13:16:16;97762.41;;;23.19;57.24
13235;BME280;6683;48.506;9.050;2023-04-28T13:19:18;97756.16;;;23.34;56.96
13235;BME280;6683;48.506;9.050;2023-04-28T13:22:20;97755.88;;;23.40;56.50
13235;BME280;6683;48.506;9.050;2023-04-28T13:25:22;97759.38;;;23.36;56.25
13235;BME280;6683;48.506;9.050;2023-04-28T13:28:27;97748.88;;;23.29;56.44
13235;BME280;6683;48.506;9.050;2023-04-28T13:31:30;97753.75;;;23.27;56.25
13235;BME280;6683;48.506;9.050;2023-04-28T13:34:32;97750.53;;;23.20;55.96
13235;BME280;6683;48.506;9.050;2023-04-28T13:37:35;97749.56;;;23.06;56.13
13235;BME280;6683;48.506;9.050;2023-04-28T13:40:42;97741.81;;;22.94;56.23
13235;BME280;6683;48.506;9.050;2023-04-28T13:43:46;97743.19;;;22.87;56.62
13235;BME280;6683;48.506;9.050;2023-04-28T13:46:49;97741.31;;;22.82;56.47
13235;BME280;6683;48.506;9.050;2023-04-28T13:49:51;97733.28;;;22.77;56.93
13235;BME280;6683;48.506;9.050;2023-04-28T13:52:53;97741.63;;;22.71;57.10
13235;BME280;6683;48.506;9.050;2023-04-28T13:55:56;97740.88;;;22.60;57.46
13235;BME280;6683;48.506;9.050;2023-04-28T13:59:00;97739.53;;;22.48;57.66
13235;BME280;6683;48.506;9.050;2023-04-28T14:02:03;97734.47;;;22.36;58.37
13235;BME280;6683;48.506;9.050;2023-04-28T14:05:06;97738.78;;;22.22;58.33
13235;BME280;6683;48.506;9.050;2023-04-28T14:08:09;97730.47;;;22.08;58.61
13235;BME280;6683;48.506;9.050;2023-04-28T14:11:11;97748.22;;;21.94;59.07
13235;BME280;6683;48.506;9.050;2023-04-28T14:14:15;97750.88;;;21.79;59.38
13235;BME280;6683;48.506;9.050;2023-04-28T14:17:17;97760.00;;;21.68;59.85
13235;BME280;6683;48.506;9.050;2023-04-28T14:20:19;97747.09;;;21.55;60.38
13235;BME280;6683;48.506;9.050;2023-04-28T14:23:22;97758.91;;;21.44;60.78
13235;BME280;6683;48.506;9.050;2023-04-28T14:26:24;97750.28;;;21.32;60.78
13235;BME280;6683;48.506;9.050;2023-04-28T14:29:29;97750.25;;;21.17;60.76
13235;BME280;6683;48.506;9.050;2023-04-28T14:32:31;97764.38;;;20.92;60.67
13235;BME280;6683;48.506;9.050;2023-04-28T14:35:34;97755.91;;;20.63;61.57
13235;BME280;6683;48.506;9.050;2023-04-28T14:38:36;97771.09;;;20.38;62.01
13235;BME280;6683;48.506;9.050;2023-04-28T14:41:38;97768.22;;;20.13;62.26
13235;BME280;6683;48.506;9.050;2023-04-28T14:44:43;97762.91;;;19.86;62.71
13235;BME280;6683;48.506;9.050;2023-04-28T14:47:46;97765.94;;;19.63;63.21
13235;BME280;6683;48.506;9.050;2023-04-28T14:50:48;97757.41;;;19.39;63.58
13235;BME280;6683;48.506;9.050;2023-04-28T14:53:51;97736.06;;;19.23;64.30
13235;BME280;6683;48.506;9.050;2023-04-28T14:56:53;97730.81;;;19.06;65.14
13235;BME280;6683;48.506;9.050;2023-04-28T14:59:57;97721.88;;;18.95;66.16
13235;BME280;6683;48.506;9.050;2023-04-28T15:02:59;97716.97;;;18.87;67.14
13235;BME280;6683;48.506;9.050;2023-04-28T15:06:01;97726.00;;;18.81;67.74
13235;BME280;6683;48.506;9.050;2023-04-28T15:09:04;97713.38;;;18.77;68.47
13235;BME280;6683;48.506;9.050;2023-04-28T15:12:06;97719.47;;;18.72;69.08
13235;BME280;6683;48.506;9.050;2023-04-28T15:15:10;97728.22;;;18.68;69.42
13235;BME280;6683;48.506;9.050;2023-04-28T15:18:13;97722.56;;;18.64;70.11
13235;BME280;6683;48.506;9.050;2023-04-28T15:21:16;97719.59;;;18.61;70.05
13235;BME280;6683;48.506;9.050;2023-04-28T15:24:19;97716.84;;;18.56;70.56
13235;BME280;6683;48.506;9.050;2023-04-28T15:27:21;97719.78;;;18.54;70.94
13235;BME280;6683;48.506;9.050;2023-04-28T15:30:25;97719.78;;;18.54;71.24
13235;BME280;6683;48.506;9.050;2023-04-28T15:33:27;97713.88;;;18.52;71.46
13235;BME280;6683;48.506;9.050;2023-04-28T15:36:29;97709.84;;;18.50;71.67
13235;BME280;6683;48.506;9.050;2023-04-28T15:39:32;97702.06;;;18.48;71.99
13235;BME280;6683;48.506;9.050;2023-04-28T15:42:34;97697.78;;;18.47;72.13
13235;BME280;6683;48.506;9.050;2023-04-28T15:45:38;97698.31;;;18.49;72.38
13235;BME280;6683;48.506;9.050;2023-04-28T15:48:40;97691.03;;;18.45;72.36
13235;BME280;6683;48.506;9.050;2023-04-28T15:51:43;97703.25;;;18.41;72.73
13235;BME280;6683;48.506;9.050;2023-04-28T15:54:45;97715.25;;;18.38;72.83
13235;BME280;6683;48.506;9.050;2023-04-28T15:57:48;97694.94;;;18.37;73.01
13235;BME280;6683;48.506;9.050;2023-04-28T16:00:53;97689.28;;;18.33;72.93
13235;BME280;6683;48.506;9.050;2023-04-28T16:03:57;97691.06;;;18.28;72.89
13235;BME280;6683;48.506;9.050;2023-04-28T16:06:59;97677.97;;;18.26;73.27
13235;BME280;6683;48.506;9.050;2023-04-28T16:10:02;97679.00;;;18.25;73.26
13235;BME280;6683;48.506;9.050;2023-04-28T16:13:04;97692.69;;;18.29;73.44
13235;BME280;6683;48.506;9.050;2023-04-28T16:16:12;97684.16;;;18.32;73.68
13235;BME280;6683;48.506;9.050;2023-04-28T16:19:14;97687.66;;;18.32;73.50
13235;BME280;6683;48.506;9.050;2023-04-28T16:22:16;97671.31;;;18.29;73.76
13235;BME280;6683;48.506;9.050;2023-04-28T16:25:19;97677.47;;;18.29;73.87
13235;BME280;6683;48.506;9.050;2023-04-28T16:28:22;97667.09;;;18.33;74.15
13235;BME280;6683;48.506;9.050;2023-04-28T16:31:25;97675.69;;;18.35;74.14